sensor_id;sensor_type;location;lat;lon;timestamp;pressure;altitude;pressure_sealevel;temperature;humidity
19600;BME280;9947;57.722;12.012;2023-05-17T00:01:28;100079.59;;;9.80;100.00
19600;BME280;9947;57.722;12.012;2023-05-17T00:03:56;100071.38;;;9.81;100.00
19600;BME280;9947;57.722;12.012;2023-05-17T00:06:23;100084.28;;;9.78;100.00
19600;BME280;9947;57.722;12.012;2023-05-17T00:08:52;100079.00;;;9.76;100.00
19600;BME280;9947;57.722;12.012;2023-05-17T00:11:19;100092.16;;;9.70;100.00
19600;BME280;9947;57.722;12.012;2023-05-17T00:13:47;100093.41;;;9.66;100.00
19600;BME280;9947;57.722;12.012;2023-05-17T00:16:14;100093.63;;;9.63;100.00
19600;BME280;9947;57.722;12.012;2023-05-17T00:18:42;100103.69;;;9.61;100.00
19600;BME280;9947;57.722;12.012;2023-05-17T00:21:10;100106.91;;;9.54;100.00
19600;BME280;9947;57.722;12.012;2023-05-17T00:23:37;100099.81;;;9.53;100.00
19600;BME280;9947;57.722;12.012;2023-05-17T00:26:07;100113.28;;;9.53;100.00
19600;BME280;9947;57.722;12.012;2023-05-17T00:28:35;100104.84;;;9.47;100.00
19600;BME280;9947;57.722;12.012;2023-05-17T00:31:03;100109.03;;;9.40;100.00
19600;BME280;9947;57.722;12.012;2023-05-17T00:33:31;100115.03;;;9.32;100.00
19600;BME280;9947;57.722;12.012;2023-05-17T00:35:58;100121.31;;;9.21;100.00
19600;BME280;9947;57.722;12.012;2023-05-17T00:38:26;100120.22;;;9.13;100.00
19600;BME280;9947;57.722;12.012;2023-05-17T00:40:52;100126.94;;;9.07;100.00
19600;BME280;9947;57.722;12.012;2023-05-17T00:43:21;100123.78;;;9.02;100.00
19600;BME280;9947;57.722;12.012;2023-05-17T00:45:50;100133.94;;;8.99;97.49
19600;BME280;9947;57.722;12.012;2023-05-17T00:48:17;100133.47;;;8.93;98.52
19600;BME280;9947;57.722;12.012;2023-05-17T00:50:46;100144.72;;;8.87;98.51
19600;BME280;9947;57.722;12.012;2023-05-17T00:53:16;100154.53;;;8.88;99.05
19600;BME280;9947;57.722;12.012;2023-05-17T00:55:47;100133.09;;;8.87;99.37
19600;BME280;9947;57.722;12.012;2023-05-17T00:58:15;100158.09;;;8.89;100.00
19600;BME280;9947;57.722;12.012;2023-05-17T01:00:44;100151.22;;;8.85;97.39
19600;BME280;9947;57.722;12.012;2023-05-17T01:03:12;100161.38;;;8.81;94.39
19600;BME280;9947;57.722;12.012;2023-05-17T01:05:40;100166.25;;;8.76;96.13
19600;BME280;9947;57.722;12.012;2023-05-17T01:08:07;100174.84;;;8.70;95.99
19600;BME280;9947;57.722;12.012;2023-05-17T01:10:48;100179.59;;;8.67;95.15
19600;BME280;9947;57.722;12.012;2023-05-17T01:13:23;100178.56;;;8.56;92.50
19600;BME280;9947;57.722;12.012;2023-05-17T01:16:01;100187.75;;;8.54;91.68
19600;BME280;9947;57.722;12.012;2023-05-17T01:18:37;100192.66;;;8.49;93.65
19600;BME280;9947;57.722;12.012;2023-05-17T01:21:20;100197.78;;;8.41;93.87
19600;BME280;9947;57.722;12.012;2023-05-17T01:24:05;100206.94;;;8.38;96.28
19600;BME280;9947;57.722;12.012;2023-05-17T01:26:42;100196.06;;;8.40;96.72
19600;BME280;9947;57.722;12.012;2023-05-17T01:29:16;100212.44;;;8.37;98.90
19600;BME280;9947;57.722;12.012;2023-05-17T01:31:46;100207.31;;;8.21;100.00
19600;BME280;9947;57.722;12.012;2023-05-17T01:34:23;100215.97;;;8.13;100.00
19600;BME280;9947;57.722;12.012;2023-05-17T01:36:52;100212.66;;;8.10;100.00
19600;BME280;9947;57.722;12.012;2023-05-17T01:39:19;100221.72;;;8.09;100.00
19600;BME280;9947;57.722;12.012;2023-05-17T01:41:53;100224.28;;;8.10;100.00
19600;BME280;9947;57.722;12.012;2023-05-17T01:44:27;100220.84;;;8.08;100.00
19600;BME280;9947;57.722;12.012;2023-05-17T01:47:02;100227.84;;;8.11;100.00
19600;BME280;9947;57.722;12.012;2023-05-17T01:49:37;100225.47;;;8.06;100.00
19600;BME280;9947;57.722;12.012;2023-05-17T01:52:08;100223.75;;;8.05;100.00
19600;BME280;9947;57.722;12.012;2023-05-17T01:54:45;100234.13;;;7.98;100.00
19600;BME280;9947;57.722;12.012;2023-05-17T01:57:14;100229.31;;;7.91;100.00
19600;BME280;9947;57.722;12.012;2023-05-17T01:59:43;100231.81;;;7.81;100.00
19600;BME280;9947;57.722;12.012;2023-05-17T02:02:12;100230.19;;;7.79;100.00
19600;BME280;9947;57.722;12.012;2023-05-17T02:04:42;100233.09;;;7.76;100.00
19600;BME280;9947;57.722;12.012;2023-05-17T02:07:13;100238.09;;;7.69;100.00
19600;BME280;9947;57.722;12.012;2023-05-17T02:09:41;100235.00;;;7.62;100.00
19600;BME280;9947;57.722;12.012;2023-05-17T02:12:08;100235.31;;;7.58;100.00
19600;BME280;9947;57.722;12.012;2023-05-17T02:14:36;100234.66;;;7.54;100.00
19600;BME280;9947;57.722;12.012;2023-05-17T02:17:05;100238.53;;;7.50;100.00
19600;BME280;9947;57.722;12.012;2023-05-17T02:19:31;100230.91;;;7.57;100.00
19600;BME280;9947;57.722;12.012;2023-05-17T02:21:59;100241.13;;;7.52;100.00
19600;BME280;9947;57.722;12.012;2023-05-17T02:24:26;100234.47;;;7.45;100.00
19600;BME280;9947;57.722;12.012;2023-05-17T02:26:55;100242.00;;;7.39;100.00
19600;BME280;9947;57.722;12.012;2023-05-17T02:29:23;100236.53;;;7.41;100.00
19600;BME280;9947;57.722;12.012;2023-05-17T02:31:51;100247.50;;;7.38;100.00
19600;BME280;9947;57.722;12.012;2023-05-17T02:34:21;100246.75;;;7.36;100.00
19600;BME280;9947;57.722;12.012;2023-05-17T02:36:57;100258.94;;;7.29;100.00
19600;BME280;9947;57.722;12.012;2023-05-17T02:39:25;100255.44;;;7.27;100.00
19600;BME280;9947;57.722;12.012;2023-05-17T02:41:54;100246.53;;;7.26;100.00
19600;BME280;9947;57.722;12.012;2023-05-17T02:44:21;100254.47;;;7.28;100.00
19600;BME280;9947;57.722;12.012;2023-05-17T02:46:51;100248.25;;;7.27;100.00
19600;BME280;9947;57.722;12.012;2023-05-17T02:49:18;100253.22;;;7.33;100.00
19600;BME280;9947;57.722;12.012;2023-05-17T02:51:45;100250.84;;;7.29;100.00
19600;BME280;9947;57.722;12.012;2023-05-17T02:54:13;100252.25;;;7.34;100.00
19600;BME280;9947;57.722;12.012;2023-05-17T02:56:47;100261.28;;;7.33;100.00
19600;BME280;9947;57.722;12.012;2023-05-17T02:59:15;100263.75;;;7.36;100.00
19600;BME280;9947;57.722;12.012;2023-05-17T03:01:45;100275.38;;;7.37;100.00
19600;BME280;9947;57.722;12.012;2023-05-17T03:04:15;100269.75;;;7.40;100.00
19600;BME280;9947;57.722;12.012;2023-05-17T03:06:46;100274.50;;;7.36;100.00
19600;BME280;9947;57.722;12.012;2023-05-17T03:09:15;100287.09;;;7.36;100.00
19600;BME280;9947;57.722;12.012;2023-05-17T03:11:43;100287.19;;;7.34;100.00
19600;BME280;9947;57.722;12.012;2023-05-17T03:14:10;100293.44;;;7.35;100.00
19600;BME280;9947;57.722;12.012;2023-05-17T03:16:38;100289.03;;;7.34;100.00
19600;BME280;9947;57.722;12.012;2023-05-17T03:19:05;100293.53;;;7.33;100.00
19600;BME280;9947;57.722;12.012;2023-05-17T03:21:37;100291.50;;;7.37;100.00
19600;BME280;9947;57.722;12.012;2023-05-17T03:24:05;100293.09;;;7.39;100.00
19600;BME280;9947;57.722;12.012;2023-05-17T03:26:40;100300.00;;;7.43;100.00
19600;BME280;9947;57.722;12.012;2023-05-17T03:29:10;100298.38;;;7.41;100.00
19600;BME280;9947;57.722;12.012;2023-05-17T03:31:37;100297.41;;;7.42;100.00
19600;BME280;9947;57.722;12.012;2023-05-17T03:34:07;100306.34;;;7.42;100.00
19600;BME280;9947;57.722;12.012;2023-05-17T03:36:38;100308.91;;;7.44;100.00
19600;BME280;9947;57.722;12.012;2023-05-17T03:39:06;100312.47;;;7.45;100.00
19600;BME280;9947;57.722;12.012;2023-05-17T03:41:34;100313.09;;;7.48;100.00
19600;BME280;9947;57.722;12.012;2023-05-17T03:44:07;100310.53;;;7.59;100.00
19600;BME280;9947;57.722;12.012;2023-05-17T03:46:35;100312.78;;;7.65;100.00
19600;BME280;9947;57.722;12.012;2023-05-17T03:49:05;100320.00;;;7.65;100.00
19600;BME280;9947;57.722;12.012;2023-05-17T03:51:32;100323.22;;;7.57;100.00
19600;BME280;9947;57.722;12.012;2023-05-17T03:54:08;100325.91;;;7.57;100.00
19600;BME280;9947;57.722;12.012;2023-05-17T03:56:35;100335.91;;;7.81;100.00
19600;BME280;9947;57.722;12.012;2023-05-17T03:59:07;100330.56;;;8.04;100.00
19600;BME280;9947;57.722;12.012;2023-05-17T04:01:35;100339.00;;;7.87;100.00
19600;BME280;9947;57.722;12.012;2023-05-17T04:04:03;100345.25;;;7.75;100.00
19600;BME280;9947;57.722;12.012;2023-05-17T04:06:34;100348.94;;;7.61;100.00
19600;BME280;9947;57.722;12.012;2023-05-17T04:09:01;100353.00;;;7.54;100.00
19600;BME280;9947;57.722;12.012;2023-05-17T04:11:30;100366.13;;;7.97;100.00
19600;BME280;9947;57.722;12.012;2023-05-17T04:14:00;100363.72;;;8.18;100.00
19600;BME280;9947;57.722;12.012;2023-05-17T04:16:27;100368.38;;;8.52;100.00
19600;BME280;9947;57.722;12.012;2023-05-17T04:18:54;100377.66;;;8.48;100.00
19600;BME280;9947;57.722;12.012;2023-05-17T04:21:24;100376.16;;;8.31;100.00
19600;BME280;9947;57.722;12.012;2023-05-17T04:23:51;100394.75;;;7.98;100.00
19600;BME280;9947;57.722;12.012;2023-05-17T04:26:21;100409.09;;;7.73;100.00
19600;BME280;9947;57.722;12.012;2023-05-17T04:28:52;100418.44;;;7.67;100.00
19600;BME280;9947;57.722;12.012;2023-05-17T04:31:23;100417.47;;;7.43;100.00
19600;BME280;9947;57.722;12.012;2023-05-17T04:33:50;100421.66;;;7.34;100.00
19600;BME280;9947;57.722;12.012;2023-05-17T04:36:17;100429.44;;;7.12;100.00
19600;BME280;9947;57.722;12.012;2023-05-17T04:38:56;100444.75;;;6.97;100.00
19600;BME280;9947;57.722;12.012;2023-05-17T04:41:24;100449.72;;;6.76;100.00
19600;BME280;9947;57.722;12.012;2023-05-17T04:43:53;100452.88;;;6.83;100.00
19600;BME280;9947;57.722;12.012;2023-05-17T04:46:20;100461.63;;;6.72;100.00
19600;BME280;9947;57.722;12.012;2023-05-17T04:48:47;100459.78;;;6.73;100.00
19600;BME280;9947;57.722;12.012;2023-05-17T04:51:16;100473.72;;;6.79;100.00
19600;BME280;9947;57.722;12.012;2023-05-17T04:53:48;100483.50;;;6.80;100.00
19600;BME280;9947;57.722;12.012;2023-05-17T04:56:16;100489.94;;;6.78;100.00
19600;BME280;9947;57.722;12.012;2023-05-17T04:58:44;100504.41;;;6.75;100.00
19600;BME280;9947;57.722;12.012;2023-05-17T05:01:13;100502.50;;;6.77;100.00
19600;BME280;9947;57.722;12.012;2023-05-17T05:03:45;100522.19;;;6.64;100.00
19600;BME280;9947;57.722;12.012;2023-05-17T05:06:13;100535.34;;;6.40;100.00
19600;BME280;9947;57.722;12.012;2023-05-17T05:08:41;100545.69;;;6.46;100.00
19600;BME280;9947;57.722;12.012;2023-05-17T05:11:14;100556.91;;;6.38;100.00
19600;BME280;9947;57.722;12.012;2023-05-17T05:13:55;100555.75;;;6.42;100.00
19600;BME280;9947;57.722;12.012;2023-05-17T05:16:30;100555.84;;;6.69;100.00
19600;BME280;9947;57.722;12.012;2023-05-17T05:19:13;100555.25;;;7.20;100.00
19600;BME280;9947;57.722;12.012;2023-05-17T05:21:43;100561.94;;;7.41;100.00
19600;BME280;9947;57.722;12.012;2023-05-17T05:24:12;100590.97;;;6.66;100.00
19600;BME280;9947;57.722;12.012;2023-05-17T05:26:40;100585.09;;;6.31;100.00
19600;BME280;9947;57.722;12.012;2023-05-17T05:29:08;100587.44;;;6.52;100.00
19600;BME280;9947;57.722;12.012;2023-05-17T05:31:37;100591.63;;;6.41;100.00
19600;BME280;9947;57.722;12.012;2023-05-17T05:34:07;100607.13;;;6.22;100.00
19600;BME280;9947;57.722;12.012;2023-05-17T05:36:34;100603.41;;;6.25;100.00
19600;BME280;9947;57.722;12.012;2023-05-17T05:39:02;100622.78;;;6.44;100.00
19600;BME280;9947;57.722;12.012;2023-05-17T05:41:33;100629.03;;;6.44;100.00
19600;BME280;9947;57.722;12.012;2023-05-17T05:44:01;100630.25;;;6.39;100.00
19600;BME280;9947;57.722;12.012;2023-05-17T05:46:32;100645.81;;;6.48;100.00
19600;BME280;9947;57.722;12.012;2023-05-17T05:49:04;100668.19;;;6.18;100.00
19600;BME280;9947;57.722;12.012;2023-05-17T05:51:35;100673.34;;;6.07;100.00
19600;BME280;9947;57.722;12.012;2023-05-17T05:54:02;100672.41;;;5.77;100.00
19600;BME280;9947;57.722;12.012;2023-05-17T05:56:32;100675.28;;;5.58;100.00
19600;BME280;9947;57.722;12.012;2023-05-17T05:59:11;100679.00;;;5.55;100.00
19600;BME280;9947;57.722;12.012;2023-05-17T06:01:42;100688.34;;;5.48;100.00
19600;BME280;9947;57.722;12.012;2023-05-17T06:04:13;100693.50;;;5.67;100.00
19600;BME280;9947;57.722;12.012;2023-05-17T06:06:48;100698.19;;;5.79;100.00
19600;BME280;9947;57.722;12.012;2023-05-17T06:09:15;100709.97;;;5.77;100.00
19600;BME280;9947;57.722;12.012;2023-05-17T06:11:49;100707.09;;;5.80;100.00
19600;BME280;9947;57.722;12.012;2023-05-17T06:14:19;100703.28;;;5.68;100.00
19600;BME280;9947;57.722;12.012;2023-05-17T06:16:47;100721.75;;;5.74;100.00
19600;BME280;9947;57.722;12.012;2023-05-17T06:19:16;100726.66;;;5.50;100.00
19600;BME280;9947;57.722;12.012;2023-05-17T06:21:46;100748.50;;;5.27;100.00
19600;BME280;9947;57.722;12.012;2023-05-17T06:24:14;100759.63;;;5.19;100.00
19600;BME280;9947;57.722;12.012;2023-05-17T06:26:42;100769.56;;;5.17;100.00
19600;BME280;9947;57.722;12.012;2023-05-17T06:29:09;100775.25;;;5.11;100.00
19600;BME280;9947;57.722;12.012;2023-05-17T06:31:42;100794.44;;;5.04;100.00
19600;BME280;9947;57.722;12.012;2023-05-17T06:34:09;100802.81;;;4.98;100.00
19600;BME280;9947;57.722;12.012;2023-05-17T06:36:42;100803.41;;;4.85;100.00
19600;BME280;9947;57.722;12.012;2023-05-17T06:39:09;100815.00;;;4.86;100.00
19600;BME280;9947;57.722;12.012;2023-05-17T06:41:37;100827.38;;;4.54;100.00
19600;BME280;9947;57.722;12.012;2023-05-17T06:44:05;100825.72;;;4.51;100.00
19600;BME280;9947;57.722;12.012;2023-05-17T06:46:33;100844.69;;;4.47;100.00
19600;BME280;9947;57.722;12.012;2023-05-17T06:49:03;100844.28;;;4.54;100.00
19600;BME280;9947;57.722;12.012;2023-05-17T06:51:46;100837.28;;;4.86;100.00
19600;BME280;9947;57.722;12.012;2023-05-17T06:54:16;100850.81;;;4.66;100.00
19600;BME280;9947;57.722;12.012;2023-05-17T06:56:44;100842.81;;;4.83;100.00
19600;BME280;9947;57.722;12.012;2023-05-17T06:59:16;100849.91;;;5.02;100.00
19600;BME280;9947;57.722;12.012;2023-05-17T07:01:43;100852.56;;;5.19;100.00
19600;BME280;9947;57.722;12.012;2023-05-17T07:04:10;100857.69;;;5.23;100.00
19600;BME280;9947;57.722;12.012;2023-05-17T07:06:52;100862.72;;;5.47;100.00
19600;BME280;9947;57.722;12.012;2023-05-17T07:09:20;100868.78;;;5.66;100.00
19600;BME280;9947;57.722;12.012;2023-05-17T07:11:53;100876.44;;;5.74;100.00
19600;BME280;9947;57.722;12.012;2023-05-17T07:14:21;100890.00;;;5.71;100.00
19600;BME280;9947;57.722;12.012;2023-05-17T07:16:50;100887.38;;;5.53;100.00
19600;BME280;9947;57.722;12.012;2023-05-17T07:19:18;100880.47;;;5.15;100.00
19600;BME280;9947;57.722;12.012;2023-05-17T07:21:48;100886.16;;;5.09;100.00
19600;BME280;9947;57.722;12.012;2023-05-17T07:24:15;100905.69;;;4.93;100.00
19600;BME280;9947;57.722;12.012;2023-05-17T07:26:52;100914.25;;;4.83;100.00
19600;BME280;9947;57.722;12.012;2023-05-17T07:29:21;100908.66;;;4.87;100.00
19600;BME280;9947;57.722;12.012;2023-05-17T07:31:51;100922.38;;;4.81;100.00
19600;BME280;9947;57.722;12.012;2023-05-17T07:34:20;100928.19;;;4.72;100.00
19600;BME280;9947;57.722;12.012;2023-05-17T07:36:49;100945.69;;;4.79;100.00
19600;BME280;9947;57.722;12.012;2023-05-17T07:39:18;100943.84;;;4.99;100.00
19600;BME280;9947;57.722;12.012;2023-05-17T07:41:51;100956.47;;;4.78;100.00
19600;BME280;9947;57.722;12.012;2023-05-17T07:44:20;100956.44;;;4.97;100.00
19600;BME280;9947;57.722;12.012;2023-05-17T07:46:47;100955.19;;;5.04;100.00
19600;BME280;9947;57.722;12.012;2023-05-17T07:49:16;100964.66;;;5.11;100.00
19600;BME280;9947;57.722;12.012;2023-05-17T07:51:43;100961.81;;;5.31;100.00
19600;BME280;9947;57.722;12.012;2023-05-17T07:54:21;100967.09;;;5.15;100.00
19600;BME280;9947;57.722;12.012;2023-05-17T07:56:49;100975.63;;;5.41;100.00
19600;BME280;9947;57.722;12.012;2023-05-17T07:59:18;100983.59;;;5.25;100.00
19600;BME280;9947;57.722;12.012;2023-05-17T08:01:47;100988.66;;;5.48;100.00
19600;BME280;9947;57.722;12.012;2023-05-17T08:04:19;100996.50;;;5.69;100.00
19600;BME280;9947;57.722;12.012;2023-05-17T08:06:49;101013.00;;;5.44;100.00
19600;BME280;9947;57.722;12.012;2023-05-17T08:09:20;101012.06;;;5.79;100.00
19600;BME280;9947;57.722;12.012;2023-05-17T08:11:48;101024.09;;;5.71;100.00
19600;BME280;9947;57.722;12.012;2023-05-17T08:14:16;101039.97;;;5.58;100.00
19600;BME280;9947;57.722;12.012;2023-05-17T08:16:47;101029.56;;;5.52;100.00
19600;BME280;9947;57.722;12.012;2023-05-17T08:19:16;101030.28;;;5.55;100.00
19600;BME280;9947;57.722;12.012;2023-05-17T08:21:46;101053.53;;;5.55;100.00
19600;BME280;9947;57.722;12.012;2023-05-17T08:24:14;101044.88;;;5.50;100.00
19600;BME280;9947;57.722;12.012;2023-05-17T08:26:46;101051.72;;;5.55;100.00
19600;BME280;9947;57.722;12.012;2023-05-17T08:29:13;101052.28;;;5.62;100.00
19600;BME280;9947;57.722;12.012;2023-05-17T08:31:41;101063.50;;;5.53;100.00
19600;BME280;9947;57.722;12.012;2023-05-17T08:34:08;101066.97;;;5.90;100.00
19600;BME280;9947;57.722;12.012;2023-05-17T08:36:38;101062.78;;;5.84;100.00
19600;BME280;9947;57.722;12.012;2023-05-17T08:39:04;101070.44;;;5.92;100.00
19600;BME280;9947;57.722;12.012;2023-05-17T08:41:34;101068.72;;;6.08;100.00
19600;BME280;9947;57.722;12.012;2023-05-17T08:44:05;101079.44;;;6.25;100.00
19600;BME280;9947;57.722;12.012;2023-05-17T08:46:37;101081.16;;;6.75;100.00
19600;BME280;9947;57.722;12.012;2023-05-17T08:49:07;101084.22;;;7.00;100.00
19600;BME280;9947;57.722;12.012;2023-05-17T08:51:43;101078.06;;;6.98;100.00
19600;BME280;9947;57.722;12.012;2023-05-17T08:54:13;101086.56;;;7.38;100.00
19600;BME280;9947;57.722;12.012;2023-05-17T08:56:47;101089.97;;;7.71;100.00
19600;BME280;9947;57.722;12.012;2023-05-17T08:59:19;101089.38;;;7.96;100.00
19600;BME280;9947;57.722;12.012;2023-05-17T09:01:49;101088.59;;;7.94;100.00
19600;BME280;9947;57.722;12.012;2023-05-17T09:04:21;101095.56;;;8.27;100.00
19600;BME280;9947;57.722;12.012;2023-05-17T09:06:56;101091.25;;;8.10;100.00
19600;BME280;9947;57.722;12.012;2023-05-17T09:09:24;101099.03;;;8.59;100.00
19600;BME280;9947;57.722;12.012;2023-05-17T09:11:55;101095.34;;;8.74;100.00
19600;BME280;9947;57.722;12.012;2023-05-17T09:14:31;101095.09;;;9.20;100.00
19600;BME280;9947;57.722;12.012;2023-05-17T09:17:00;101091.19;;;9.65;100.00
19600;BME280;9947;57.722;12.012;2023-05-17T09:19:29;101094.94;;;9.63;100.00
19600;BME280;9947;57.722;12.012;2023-05-17T09:21:59;101101.56;;;9.71;100.00
19600;BME280;9947;57.722;12.012;2023-05-17T09:24:29;101096.31;;;10.35;100.00
19600;BME280;9947;57.722;12.012;2023-05-17T09:27:03;101104.88;;;10.02;100.00
19600;BME280;9947;57.722;12.012;2023-05-17T09:29:33;101106.94;;;9.98;97.35
19600;BME280;9947;57.722;12.012;2023-05-17T09:32:14;101104.25;;;10.11;96.27
19600;BME280;9947;57.722;12.012;2023-05-17T09:34:41;101103.25;;;10.12;100.00
19600;BME280;9947;57.722;12.012;2023-05-17T09:37:14;101100.09;;;10.70;100.00
19600;BME280;9947;57.722;12.012;2023-05-17T09:39:46;101105.66;;;10.93;90.33
19600;BME280;9947;57.722;12.012;2023-05-17T09:42:13;101092.38;;;10.90;97.28
19600;BME280;9947;57.722;12.012;2023-05-17T09:44:49;101100.69;;;10.99;88.94
19600;BME280;9947;57.722;12.012;2023-05-17T09:47:22;101094.13;;;10.65;70.96
19600;BME280;9947;57.722;12.012;2023-05-17T09:49:50;101087.72;;;10.92;75.56
19600;BME280;9947;57.722;12.012;2023-05-17T09:52:22;101100.66;;;11.12;65.44
19600;BME280;9947;57.722;12.012;2023-05-17T09:54:53;101102.72;;;11.08;60.82
19600;BME280;9947;57.722;12.012;2023-05-17T09:57:21;101104.56;;;11.08;62.43
19600;BME280;9947;57.722;12.012;2023-05-17T09:59:54;101106.69;;;11.28;65.22
19600;BME280;9947;57.722;12.012;2023-05-17T10:02:27;101109.97;;;11.08;66.24
19600;BME280;9947;57.722;12.012;2023-05-17T10:04:58;101116.63;;;10.66;57.82
19600;BME280;9947;57.722;12.012;2023-05-17T10:07:32;101109.59;;;10.63;55.53
19600;BME280;9947;57.722;12.012;2023-05-17T10:10:02;101119.53;;;10.88;59.94
19600;BME280;9947;57.722;12.012;2023-05-17T10:12:32;101120.50;;;11.36;62.74
19600;BME280;9947;57.722;12.012;2023-05-17T10:15:16;101128.38;;;11.52;58.36
19600;BME280;9947;57.722;12.012;2023-05-17T10:17:44;101124.56;;;11.55;54.16
19600;BME280;9947;57.722;12.012;2023-05-17T10:20:16;101128.06;;;11.68;57.41
19600;BME280;9947;57.722;12.012;2023-05-17T10:22:46;101137.22;;;11.30;52.93
19600;BME280;9947;57.722;12.012;2023-05-17T10:25:21;101136.22;;;10.95;52.02
19600;BME280;9947;57.722;12.012;2023-05-17T10:27:50;101138.69;;;11.34;55.17
19600;BME280;9947;57.722;12.012;2023-05-17T10:30:22;101139.25;;;11.63;53.04
19600;BME280;9947;57.722;12.012;2023-05-17T10:32:52;101140.84;;;12.02;53.69
19600;BME280;9947;57.722;12.012;2023-05-17T10:35:24;101144.28;;;12.04;50.74
19600;BME280;9947;57.722;12.012;2023-05-17T10:37:51;101146.19;;;11.91;53.53
19600;BME280;9947;57.722;12.012;2023-05-17T10:40:19;101146.72;;;11.72;49.77
19600;BME280;9947;57.722;12.012;2023-05-17T10:42:51;101149.84;;;11.66;51.56
19600;BME280;9947;57.722;12.012;2023-05-17T10:45:22;101149.72;;;11.68;50.48
19600;BME280;9947;57.722;12.012;2023-05-17T10:47:50;101151.84;;;11.88;50.21
19600;BME280;9947;57.722;12.012;2023-05-17T10:50:22;101155.47;;;11.76;50.59
19600;BME280;9947;57.722;12.012;2023-05-17T10:52:51;101177.69;;;11.81;46.97
19600;BME280;9947;57.722;12.012;2023-05-17T10:55:22;101183.00;;;12.18;50.27
19600;BME280;9947;57.722;12.012;2023-05-17T10:58:17;101176.72;;;11.33;47.43
19600;BME280;9947;57.722;12.012;2023-05-17T11:03:38;101172.75;;;11.13;48.11
19600;BME280;9947;57.722;12.012;2023-05-17T11:06:16;101188.44;;;11.08;51.03
19600;BME280;9947;57.722;12.012;2023-05-17T11:12:04;101193.84;;;11.21;54.97
19600;BME280;9947;57.722;12.012;2023-05-17T11:14:51;101200.31;;;11.67;53.47
19600;BME280;9947;57.722;12.012;2023-05-17T11:17:24;101205.50;;;11.83;53.62
19600;BME280;9947;57.722;12.012;2023-05-17T11:19:55;101217.31;;;11.46;52.24
19600;BME280;9947;57.722;12.012;2023-05-17T11:22:39;101224.16;;;11.00;50.82
19600;BME280;9947;57.722;12.012;2023-05-17T11:25:08;101223.81;;;10.67;50.16
19600;BME280;9947;57.722;12.012;2023-05-17T11:27:43;101229.25;;;10.79;50.80
19600;BME280;9947;57.722;12.012;2023-05-17T11:30:22;101230.31;;;11.15;50.09
19600;BME280;9947;57.722;12.012;2023-05-17T11:33:02;101233.53;;;11.46;50.87
19600;BME280;9947;57.722;12.012;2023-05-17T11:35:32;101239.44;;;11.76;50.90
19600;BME280;9947;57.722;12.012;2023-05-17T11:38:14;101229.66;;;11.86;51.00
19600;BME280;9947;57.722;12.012;2023-05-17T11:40:45;101237.91;;;11.85;51.47
19600;BME280;9947;57.722;12.012;2023-05-17T11:43:17;101253.41;;;11.83;50.66
19600;BME280;9947;57.722;12.012;2023-05-17T11:45:57;101243.84;;;12.14;52.15
19600;BME280;9947;57.722;12.012;2023-05-17T11:48:33;101252.84;;;11.90;50.99
19600;BME280;9947;57.722;12.012;2023-05-17T11:51:01;101259.03;;;11.67;50.61
19600;BME280;9947;57.722;12.012;2023-05-17T11:53:31;101257.28;;;12.15;51.54
19600;BME280;9947;57.722;12.012;2023-05-17T11:56:04;101274.06;;;12.20;50.08
19600;BME280;9947;57.722;12.012;2023-05-17T11:58:34;101272.66;;;11.91;47.92
19600;BME280;9947;57.722;12.012;2023-05-17T12:01:03;101280.31;;;11.97;51.41
19600;BME280;9947;57.722;12.012;2023-05-17T12:03:34;101276.47;;;12.25;51.62
19600;BME280;9947;57.722;12.012;2023-05-17T12:06:04;101280.19;;;12.35;51.02
19600;BME280;9947;57.722;12.012;2023-05-17T12:08:32;101291.75;;;11.77;51.96
19600;BME280;9947;57.722;12.012;2023-05-17T12:11:00;101291.38;;;11.32;52.10
19600;BME280;9947;57.722;12.012;2023-05-17T12:13:30;101309.44;;;11.44;52.07
19600;BME280;9947;57.722;12.012;2023-05-17T12:16:03;101298.84;;;11.28;52.64
19600;BME280;9947;57.722;12.012;2023-05-17T12:18:35;101296.56;;;11.35;53.99
19600;BME280;9947;57.722;12.012;2023-05-17T12:21:04;101317.25;;;11.23;52.18
19600;BME280;9947;57.722;12.012;2023-05-17T12:23:35;101312.69;;;11.11;53.14
19600;BME280;9947;57.722;12.012;2023-05-17T12:26:05;101306.06;;;10.90;53.17
19600;BME280;9947;57.722;12.012;2023-05-17T12:28:34;101330.97;;;10.95;53.53
19600;BME280;9947;57.722;12.012;2023-05-17T12:31:06;101320.81;;;10.98;54.09
19600;BME280;9947;57.722;12.012;2023-05-17T12:33:39;101327.06;;;10.99;54.60
19600;BME280;9947;57.722;12.012;2023-05-17T12:36:10;101328.69;;;11.01;53.72
19600;BME280;9947;57.722;12.012;2023-05-17T12:38:39;101343.44;;;11.23;54.15
19600;BME280;9947;57.722;12.012;2023-05-17T12:41:10;101331.00;;;11.20;53.09
19600;BME280;9947;57.722;12.012;2023-05-17T12:43:42;101337.47;;;11.18;54.27
19600;BME280;9947;57.722;12.012;2023-05-17T12:46:22;101330.13;;;11.20;55.10
19600;BME280;9947;57.722;12.012;2023-05-17T12:48:53;101340.50;;;11.38;55.83
19600;BME280;9947;57.722;12.012;2023-05-17T12:51:23;101352.75;;;11.31;52.51
19600;BME280;9947;57.722;12.012;2023-05-17T12:53:53;101344.72;;;11.04;51.83
19600;BME280;9947;57.722;12.012;2023-05-17T12:56:22;101351.31;;;11.00;51.64
19600;BME280;9947;57.722;12.012;2023-05-17T12:59:06;101357.38;;;11.17;51.69
19600;BME280;9947;57.722;12.012;2023-05-17T13:01:41;101366.25;;;11.19;52.79
19600;BME280;9947;57.722;12.012;2023-05-17T13:04:13;101361.94;;;11.16;53.28
19600;BME280;9947;57.722;12.012;2023-05-17T13:06:44;101374.63;;;11.28;51.66
19600;BME280;9947;57.722;12.012;2023-05-17T13:09:12;101362.56;;;11.07;51.88
19600;BME280;9947;57.722;12.012;2023-05-17T13:11:57;101378.16;;;11.16;51.74
19600;BME280;9947;57.722;12.012;2023-05-17T13:14:37;101374.31;;;11.33;49.88